sensor_id;sensor_type;location;lat;lon;timestamp;pressure;altitude;pressure_sealevel;temperature
15575;BMP180;7888;46.748;8.102;2023-05-29T00:01:34;93958.00;;;21.50
15575;BMP180;7888;46.748;8.102;2023-05-29T00:04:01;93980.00;;;21.50
15575;BMP180;7888;46.748;8.102;2023-05-29T00:06:27;93953.00;;;21.50
15575;BMP180;7888;46.748;8.102;2023-05-29T00:08:53;93963.00;;;21.50
15575;BMP180;7888;46.748;8.102;2023-05-29T00:11:21;93955.00;;;21.40
15575;BMP180;7888;46.748;8.102;2023-05-29T00:13:50;93958.00;;;21.30
15575;BMP180;7888;46.748;8.102;2023-05-29T00:16:16;93974.00;;;21.30
15575;BMP180;7888;46.748;8.102;2023-05-29T00:18:43;93946.00;;;21.30
15575;BMP180;7888;46.748;8.102;2023-05-29T00:21:13;93965.00;;;21.30
15575;BMP180;7888;46.748;8.102;2023-05-29T00:23:39;93944.00;;;21.20
15575;BMP180;7888;46.748;8.102;2023-05-29T00:26:05;93931.00;;;21.10
15575;BMP180;7888;46.748;8.102;2023-05-29T00:28:31;93960.00;;;21.10
15575;BMP180;7888;46.748;8.102;2023-05-29T00:30:57;93945.00;;;21.10
15575;BMP180;7888;46.748;8.102;2023-05-29T00:33:23;93961.00;;;21.10
15575;BMP180;7888;46.748;8.102;2023-05-29T00:35:48;93932.00;;;20.90
15575;BMP180;7888;46.748;8.102;2023-05-29T00:38:14;93946.00;;;21.00
15575;BMP180;7888;46.748;8.102;2023-05-29T00:40:40;93946.00;;;20.90
15575;BMP180;7888;46.748;8.102;2023-05-29T00:43:06;93952.00;;;20.90
15575;BMP180;7888;46.748;8.102;2023-05-29T00:45:32;93953.00;;;20.90
15575;BMP180;7888;46.748;8.102;2023-05-29T00:48:03;93953.00;;;20.80
15575;BMP180;7888;46.748;8.102;2023-05-29T00:50:30;93949.00;;;20.70
15575;BMP180;7888;46.748;8.102;2023-05-29T00:52:56;93941.00;;;20.80
15575;BMP180;7888;46.748;8.102;2023-05-29T00:55:29;93962.00;;;20.70
15575;BMP180;7888;46.748;8.102;2023-05-29T00:58:13;93950.00;;;20.70
15575;BMP180;7888;46.748;8.102;2023-05-29T01:00:38;93945.00;;;20.70
15575;BMP180;7888;46.748;8.102;2023-05-29T01:03:06;93943.00;;;20.60
15575;BMP180;7888;46.748;8.102;2023-05-29T01:05:34;93937.00;;;20.60
15575;BMP180;7888;46.748;8.102;2023-05-29T01:08:02;93957.00;;;20.60
15575;BMP180;7888;46.748;8.102;2023-05-29T01:10:29;93947.00;;;20.50
15575;BMP180;7888;46.748;8.102;2023-05-29T01:13:21;93947.00;;;20.50
15575;BMP180;7888;46.748;8.102;2023-05-29T01:18:33;93943.00;;;20.40
15575;BMP180;7888;46.748;8.102;2023-05-29T01:24:13;93944.00;;;20.20
15575;BMP180;7888;46.748;8.102;2023-05-29T01:27:00;93943.00;;;20.20
15575;BMP180;7888;46.748;8.102;2023-05-29T01:29:29;93946.00;;;20.20
15575;BMP180;7888;46.748;8.102;2023-05-29T01:31:59;93949.00;;;20.20
15575;BMP180;7888;46.748;8.102;2023-05-29T01:34:25;93924.00;;;20.20
15575;BMP180;7888;46.748;8.102;2023-05-29T01:36:50;93920.00;;;20.10
15575;BMP180;7888;46.748;8.102;2023-05-29T01:39:17;93924.00;;;20.10
15575;BMP180;7888;46.748;8.102;2023-05-29T01:41:46;93948.00;;;20.00
15575;BMP180;7888;46.748;8.102;2023-05-29T01:44:13;93950.00;;;20.10
15575;BMP180;7888;46.748;8.102;2023-05-29T01:46:41;93945.00;;;20.10
15575;BMP180;7888;46.748;8.102;2023-05-29T01:49:09;93927.00;;;20.00
15575;BMP180;7888;46.748;8.102;2023-05-29T01:51:38;93952.00;;;20.00
15575;BMP180;7888;46.748;8.102;2023-05-29T01:54:04;93928.00;;;20.00
15575;BMP180;7888;46.748;8.102;2023-05-29T01:56:31;93951.00;;;19.90
15575;BMP180;7888;46.748;8.102;2023-05-29T01:59:00;93921.00;;;19.90
15575;BMP180;7888;46.748;8.102;2023-05-29T02:01:27;93941.00;;;19.90
15575;BMP180;7888;46.748;8.102;2023-05-29T02:03:53;93928.00;;;19.90
15575;BMP180;7888;46.748;8.102;2023-05-29T02:06:19;93924.00;;;19.80
15575;BMP180;7888;46.748;8.102;2023-05-29T02:08:46;93923.00;;;19.80
15575;BMP180;7888;46.748;8.102;2023-05-29T02:11:12;93936.00;;;19.90
15575;BMP180;7888;46.748;8.102;2023-05-29T02:13:38;93937.00;;;19.80
15575;BMP180;7888;46.748;8.102;2023-05-29T02:16:04;93920.00;;;19.80
15575;BMP180;7888;46.748;8.102;2023-05-29T02:18:30;93920.00;;;19.80
15575;BMP180;7888;46.748;8.102;2023-05-29T02:20:56;93942.00;;;19.80
15575;BMP180;7888;46.748;8.102;2023-05-29T02:23:22;93927.00;;;19.70
15575;BMP180;7888;46.748;8.102;2023-05-29T02:25:48;93936.00;;;19.70
15575;BMP180;7888;46.748;8.102;2023-05-29T02:28:14;93923.00;;;19.70
15575;BMP180;7888;46.748;8.102;2023-05-29T02:30:40;93929.00;;;19.70
15575;BMP180;7888;46.748;8.102;2023-05-29T02:33:06;93929.00;;;19.60
15575;BMP180;7888;46.748;8.102;2023-05-29T02:35:32;93932.00;;;19.60
15575;BMP180;7888;46.748;8.102;2023-05-29T02:37:57;93936.00;;;19.60
15575;BMP180;7888;46.748;8.102;2023-05-29T02:40:23;93935.00;;;19.50
15575;BMP180;7888;46.748;8.102;2023-05-29T02:42:49;93925.00;;;19.50
15575;BMP180;7888;46.748;8.102;2023-05-29T02:45:17;93943.00;;;19.50
15575;BMP180;7888;46.748;8.102;2023-05-29T02:47:42;93923.00;;;19.50
15575;BMP180;7888;46.748;8.102;2023-05-29T02:50:09;93934.00;;;19.50
15575;BMP180;7888;46.748;8.102;2023-05-29T02:52:35;93942.00;;;19.40
15575;BMP180;7888;46.748;8.102;2023-05-29T02:55:03;93922.00;;;19.40
15575;BMP180;7888;46.748;8.102;2023-05-29T02:57:31;93938.00;;;19.40
15575;BMP180;7888;46.748;8.102;2023-05-29T02:59:57;93919.00;;;19.30
15575;BMP180;7888;46.748;8.102;2023-05-29T03:02:23;93936.00;;;19.30
15575;BMP180;7888;46.748;8.102;2023-05-29T03:04:49;93939.00;;;19.30
15575;BMP180;7888;46.748;8.102;2023-05-29T03:07:16;93916.00;;;19.30
15575;BMP180;7888;46.748;8.102;2023-05-29T03:09:42;93936.00;;;19.30
15575;BMP180;7888;46.748;8.102;2023-05-29T03:12:08;93913.00;;;19.30
15575;BMP180;7888;46.748;8.102;2023-05-29T03:14:34;93939.00;;;19.20
15575;BMP180;7888;46.748;8.102;2023-05-29T03:17:06;93939.00;;;19.10
15575;BMP180;7888;46.748;8.102;2023-05-29T03:19:33;93920.00;;;19.10
15575;BMP180;7888;46.748;8.102;2023-05-29T03:21:59;93927.00;;;19.10
15575;BMP180;7888;46.748;8.102;2023-05-29T03:24:25;93937.00;;;19.10
15575;BMP180;7888;46.748;8.102;2023-05-29T03:26:51;93921.00;;;19.10
15575;BMP180;7888;46.748;8.102;2023-05-29T03:29:17;93929.00;;;18.90
15575;BMP180;7888;46.748;8.102;2023-05-29T03:31:43;93939.00;;;19.00
15575;BMP180;7888;46.748;8.102;2023-05-29T03:34:09;93930.00;;;19.00
15575;BMP180;7888;46.748;8.102;2023-05-29T03:36:35;93906.00;;;19.00
15575;BMP180;7888;46.748;8.102;2023-05-29T03:39:04;93927.00;;;18.90
15575;BMP180;7888;46.748;8.102;2023-05-29T03:41:30;93911.00;;;19.00
15575;BMP180;7888;46.748;8.102;2023-05-29T03:43:56;93926.00;;;18.90
15575;BMP180;7888;46.748;8.102;2023-05-29T03:46:22;93907.00;;;18.90
15575;BMP180;7888;46.748;8.102;2023-05-29T03:48:47;93913.00;;;18.90
15575;BMP180;7888;46.748;8.102;2023-05-29T03:51:13;93915.00;;;18.90
15575;BMP180;7888;46.748;8.102;2023-05-29T03:53:39;93916.00;;;18.90
15575;BMP180;7888;46.748;8.102;2023-05-29T03:56:05;93923.00;;;18.80
15575;BMP180;7888;46.748;8.102;2023-05-29T03:58:31;93925.00;;;18.80
15575;BMP180;7888;46.748;8.102;2023-05-29T04:00:57;93944.00;;;18.80
15575;BMP180;7888;46.748;8.102;2023-05-29T04:03:23;93933.00;;;18.70
15575;BMP180;7888;46.748;8.102;2023-05-29T04:05:49;93911.00;;;18.80
15575;BMP180;7888;46.748;8.102;2023-05-29T04:08:15;93916.00;;;18.70
15575;BMP180;7888;46.748;8.102;2023-05-29T04:10:41;93947.00;;;18.70
15575;BMP180;7888;46.748;8.102;2023-05-29T04:13:07;93932.00;;;18.70
15575;BMP180;7888;46.748;8.102;2023-05-29T04:15:32;93934.00;;;18.70
15575;BMP180;7888;46.748;8.102;2023-05-29T04:17:59;93943.00;;;18.70
15575;BMP180;7888;46.748;8.102;2023-05-29T04:20:25;93948.00;;;18.70
15575;BMP180;7888;46.748;8.102;2023-05-29T04:22:51;93947.00;;;18.70
15575;BMP180;7888;46.748;8.102;2023-05-29T04:25:18;93953.00;;;18.70
15575;BMP180;7888;46.748;8.102;2023-05-29T04:27:44;93958.00;;;18.70
15575;BMP180;7888;46.748;8.102;2023-05-29T04:30:15;93977.00;;;18.70
15575;BMP180;7888;46.748;8.102;2023-05-29T04:32:42;93984.00;;;18.60
15575;BMP180;7888;46.748;8.102;2023-05-29T04:35:08;93956.00;;;18.70
15575;BMP180;7888;46.748;8.102;2023-05-29T04:37:36;93967.00;;;18.70
15575;BMP180;7888;46.748;8.102;2023-05-29T04:40:07;93960.00;;;18.70
15575;BMP180;7888;46.748;8.102;2023-05-29T04:42:36;93975.00;;;18.70
15575;BMP180;7888;46.748;8.102;2023-05-29T04:45:03;93974.00;;;18.70
15575;BMP180;7888;46.748;8.102;2023-05-29T04:47:32;93983.00;;;18.60
15575;BMP180;7888;46.748;8.102;2023-05-29T04:50:02;93967.00;;;18.60
15575;BMP180;7888;46.748;8.102;2023-05-29T04:52:28;93960.00;;;18.70
15575;BMP180;7888;46.748;8.102;2023-05-29T04:54:55;93957.00;;;18.60
15575;BMP180;7888;46.748;8.102;2023-05-29T04:57:22;93964.00;;;18.70
15575;BMP180;7888;46.748;8.102;2023-05-29T04:59:48;93964.00;;;18.70
15575;BMP180;7888;46.748;8.102;2023-05-29T05:02:14;93956.00;;;18.70
15575;BMP180;7888;46.748;8.102;2023-05-29T05:04:40;93958.00;;;18.80
15575;BMP180;7888;46.748;8.102;2023-05-29T05:07:05;93963.00;;;18.80
15575;BMP180;7888;46.748;8.102;2023-05-29T05:09:31;93983.00;;;18.80
15575;BMP180;7888;46.748;8.102;2023-05-29T05:11:57;93988.00;;;18.80
15575;BMP180;7888;46.748;8.102;2023-05-29T05:14:23;93978.00;;;18.90
15575;BMP180;7888;46.748;8.102;2023-05-29T05:16:49;93969.00;;;18.80
15575;BMP180;7888;46.748;8.102;2023-05-29T05:19:16;93982.00;;;18.80
15575;BMP180;7888;46.748;8.102;2023-05-29T05:21:42;93980.00;;;18.90
15575;BMP180;7888;46.748;8.102;2023-05-29T05:24:08;93988.00;;;18.90
15575;BMP180;7888;46.748;8.102;2023-05-29T05:26:34;93971.00;;;18.90
15575;BMP180;7888;46.748;8.102;2023-05-29T05:29:00;93966.00;;;19.00
15575;BMP180;7888;46.748;8.102;2023-05-29T05:31:26;93971.00;;;18.90
15575;BMP180;7888;46.748;8.102;2023-05-29T05:33:52;93994.00;;;19.00
15575;BMP180;7888;46.748;8.102;2023-05-29T05:36:18;93991.00;;;19.10
15575;BMP180;7888;46.748;8.102;2023-05-29T05:38:44;93977.00;;;19.10
15575;BMP180;7888;46.748;8.102;2023-05-29T05:41:10;93971.00;;;19.10
15575;BMP180;7888;46.748;8.102;2023-05-29T05:43:36;93971.00;;;19.20
15575;BMP180;7888;46.748;8.102;2023-05-29T05:46:02;93981.00;;;19.30
15575;BMP180;7888;46.748;8.102;2023-05-29T05:48:28;93989.00;;;19.30
15575;BMP180;7888;46.748;8.102;2023-05-29T05:50:53;93976.00;;;19.30
15575;BMP180;7888;46.748;8.102;2023-05-29T05:53:19;93976.00;;;19.40
15575;BMP180;7888;46.748;8.102;2023-05-29T05:55:46;93989.00;;;19.50
15575;BMP180;7888;46.748;8.102;2023-05-29T05:58:12;93976.00;;;19.50
15575;BMP180;7888;46.748;8.102;2023-05-29T06:00:40;93983.00;;;19.50
15575;BMP180;7888;46.748;8.102;2023-05-29T06:03:05;94004.00;;;19.70
15575;BMP180;7888;46.748;8.102;2023-05-29T06:05:31;94000.00;;;19.80
15575;BMP180;7888;46.748;8.102;2023-05-29T06:07:59;93984.00;;;19.80
15575;BMP180;7888;46.748;8.102;2023-05-29T06:10:25;93990.00;;;19.80
15575;BMP180;7888;46.748;8.102;2023-05-29T06:12:51;93982.00;;;19.90
15575;BMP180;7888;46.748;8.102;2023-05-29T06:15:18;94002.00;;;20.00
15575;BMP180;7888;46.748;8.102;2023-05-29T06:17:44;93972.00;;;20.10
15575;BMP180;7888;46.748;8.102;2023-05-29T06:20:10;93998.00;;;20.20
15575;BMP180;7888;46.748;8.102;2023-05-29T06:22:39;93997.00;;;20.30
15575;BMP180;7888;46.748;8.102;2023-05-29T06:25:06;93977.00;;;20.40
15575;BMP180;7888;46.748;8.102;2023-05-29T06:27:32;93973.00;;;20.60
15575;BMP180;7888;46.748;8.102;2023-05-29T06:29:58;93985.00;;;20.60
15575;BMP180;7888;46.748;8.102;2023-05-29T06:32:23;93965.00;;;20.70
15575;BMP180;7888;46.748;8.102;2023-05-29T06:34:49;93970.00;;;20.90
15575;BMP180;7888;46.748;8.102;2023-05-29T06:37:15;93975.00;;;21.00
15575;BMP180;7888;46.748;8.102;2023-05-29T06:39:45;93964.00;;;21.00
15575;BMP180;7888;46.748;8.102;2023-05-29T06:42:10;93978.00;;;21.10
15575;BMP180;7888;46.748;8.102;2023-05-29T06:44:36;93969.00;;;21.20
15575;BMP180;7888;46.748;8.102;2023-05-29T06:47:02;93973.00;;;21.30
15575;BMP180;7888;46.748;8.102;2023-05-29T06:49:28;93970.00;;;21.30
15575;BMP180;7888;46.748;8.102;2023-05-29T06:51:54;93987.00;;;21.40
15575;BMP180;7888;46.748;8.102;2023-05-29T06:54:19;93952.00;;;21.50
15575;BMP180;7888;46.748;8.102;2023-05-29T06:56:45;93969.00;;;21.50
15575;BMP180;7888;46.748;8.102;2023-05-29T06:59:11;93940.00;;;21.60
15575;BMP180;7888;46.748;8.102;2023-05-29T07:01:37;93980.00;;;21.80
15575;BMP180;7888;46.748;8.102;2023-05-29T07:04:04;93973.00;;;21.80
15575;BMP180;7888;46.748;8.102;2023-05-29T07:06:30;93953.00;;;22.00
15575;BMP180;7888;46.748;8.102;2023-05-29T07:08:55;93957.00;;;22.10
15575;BMP180;7888;46.748;8.102;2023-05-29T07:11:21;93952.00;;;22.20
15575;BMP180;7888;46.748;8.102;2023-05-29T07:13:47;93961.00;;;22.40
15575;BMP180;7888;46.748;8.102;2023-05-29T07:16:13;93968.00;;;22.40
15575;BMP180;7888;46.748;8.102;2023-05-29T07:18:39;93977.00;;;22.60
15575;BMP180;7888;46.748;8.102;2023-05-29T07:21:05;93985.00;;;22.70
15575;BMP180;7888;46.748;8.102;2023-05-29T07:23:31;93960.00;;;22.80
15575;BMP180;7888;46.748;8.102;2023-05-29T07:25:57;93970.00;;;22.90
15575;BMP180;7888;46.748;8.102;2023-05-29T07:28:23;93966.00;;;23.10
15575;BMP180;7888;46.748;8.102;2023-05-29T07:30:49;93971.00;;;23.20
15575;BMP180;7888;46.748;8.102;2023-05-29T07:33:15;93965.00;;;23.40
15575;BMP180;7888;46.748;8.102;2023-05-29T07:35:40;93968.00;;;23.50
15575;BMP180;7888;46.748;8.102;2023-05-29T07:38:06;93964.00;;;23.60
15575;BMP180;7888;46.748;8.102;2023-05-29T07:40:32;93977.00;;;23.80
15575;BMP180;7888;46.748;8.102;2023-05-29T07:42:58;93969.00;;;23.90
15575;BMP180;7888;46.748;8.102;2023-05-29T07:45:23;93978.00;;;24.00
15575;BMP180;7888;46.748;8.102;2023-05-29T07:47:49;93978.00;;;24.20
15575;BMP180;7888;46.748;8.102;2023-05-29T07:50:15;93968.00;;;24.30
15575;BMP180;7888;46.748;8.102;2023-05-29T07:52:43;93965.00;;;24.50
15575;BMP180;7888;46.748;8.102;2023-05-29T07:55:09;93973.00;;;24.60
15575;BMP180;7888;46.748;8.102;2023-05-29T07:57:35;93963.00;;;24.80
15575;BMP180;7888;46.748;8.102;2023-05-29T08:00:01;93969.00;;;24.90
15575;BMP180;7888;46.748;8.102;2023-05-29T08:02:37;93970.00;;;25.10
15575;BMP180;7888;46.748;8.102;2023-05-29T08:05:03;93959.00;;;25.20
15575;BMP180;7888;46.748;8.102;2023-05-29T08:07:29;93962.00;;;25.40
15575;BMP180;7888;46.748;8.102;2023-05-29T08:09:56;93977.00;;;25.50
15575;BMP180;7888;46.748;8.102;2023-05-29T08:12:21;93963.00;;;25.60
15575;BMP180;7888;46.748;8.102;2023-05-29T08:14:47;93973.00;;;25.70
15575;BMP180;7888;46.748;8.102;2023-05-29T08:17:13;93968.00;;;25.70
15575;BMP180;7888;46.748;8.102;2023-05-29T08:19:39;93967.00;;;25.80
15575;BMP180;7888;46.748;8.102;2023-05-29T08:22:05;93975.00;;;25.90
15575;BMP180;7888;46.748;8.102;2023-05-29T08:24:31;93956.00;;;26.00
15575;BMP180;7888;46.748;8.102;2023-05-29T08:26:57;93972.00;;;26.00
15575;BMP180;7888;46.748;8.102;2023-05-29T08:29:23;93975.00;;;26.10
15575;BMP180;7888;46.748;8.102;2023-05-29T08:31:49;93980.00;;;26.30
15575;BMP180;7888;46.748;8.102;2023-05-29T08:34:15;93951.00;;;26.30
15575;BMP180;7888;46.748;8.102;2023-05-29T08:36:41;93981.00;;;26.40
15575;BMP180;7888;46.748;8.102;2023-05-29T08:39:08;93988.00;;;26.50
15575;BMP180;7888;46.748;8.102;2023-05-29T08:42:04;93972.00;;;26.50
15575;BMP180;7888;46.748;8.102;2023-05-29T08:44:33;93978.00;;;26.60
15575;BMP180;7888;46.748;8.102;2023-05-29T08:47:03;93979.00;;;26.70
15575;BMP180;7888;46.748;8.102;2023-05-29T08:49:42;93969.00;;;26.60
15575;BMP180;7888;46.748;8.102;2023-05-29T08:52:19;93966.00;;;26.70
15575;BMP180;7888;46.748;8.102;2023-05-29T08:54:46;93986.00;;;26.80
15575;BMP180;7888;46.748;8.102;2023-05-29T08:57:12;93961.00;;;26.90
15575;BMP180;7888;46.748;8.102;2023-05-29T08:59:43;93975.00;;;26.90
15575;BMP180;7888;46.748;8.102;2023-05-29T09:02:11;93977.00;;;27.00
15575;BMP180;7888;46.748;8.102;2023-05-29T09:04:38;93967.00;;;27.10
15575;BMP180;7888;46.748;8.102;2023-05-29T09:07:04;93973.00;;;27.30
15575;BMP180;7888;46.748;8.102;2023-05-29T09:09:34;93972.00;;;27.30
15575;BMP180;7888;46.748;8.102;2023-05-29T09:12:00;93963.00;;;27.30
15575;BMP180;7888;46.748;8.102;2023-05-29T09:14:42;93969.00;;;27.40
15575;BMP180;7888;46.748;8.102;2023-05-29T09:17:09;93973.00;;;27.50
15575;BMP180;7888;46.748;8.102;2023-05-29T09:19:36;93984.00;;;27.60
15575;BMP180;7888;46.748;8.102;2023-05-29T09:22:10;93971.00;;;27.70
15575;BMP180;7888;46.748;8.102;2023-05-29T09:24:37;93981.00;;;27.80
15575;BMP180;7888;46.748;8.102;2023-05-29T09:27:08;93969.00;;;27.80
15575;BMP180;7888;46.748;8.102;2023-05-29T09:29:38;93980.00;;;27.80
15575;BMP180;7888;46.748;8.102;2023-05-29T09:32:16;93977.00;;;27.90
15575;BMP180;7888;46.748;8.102;2023-05-29T09:34:43;93980.00;;;28.10
15575;BMP180;7888;46.748;8.102;2023-05-29T09:37:11;93981.00;;;28.20
15575;BMP180;7888;46.748;8.102;2023-05-29T09:39:50;93972.00;;;28.20
15575;BMP180;7888;46.748;8.102;2023-05-29T09:42:20;93975.00;;;28.30
15575;BMP180;7888;46.748;8.102;2023-05-29T09:44:49;93977.00;;;28.30
15575;BMP180;7888;46.748;8.102;2023-05-29T09:47:18;93974.00;;;28.30
15575;BMP180;7888;46.748;8.102;2023-05-29T09:49:45;93969.00;;;28.30
15575;BMP180;7888;46.748;8.102;2023-05-29T09:52:15;93974.00;;;28.30
15575;BMP180;7888;46.748;8.102;2023-05-29T09:54:46;93956.00;;;28.40
15575;BMP180;7888;46.748;8.102;2023-05-29T09:57:17;93953.00;;;28.60
15575;BMP180;7888;46.748;8.102;2023-05-29T09:59:46;93964.00;;;28.80
15575;BMP180;7888;46.748;8.102;2023-05-29T10:02:17;93946.00;;;29.00
15575;BMP180;7888;46.748;8.102;2023-05-29T10:04:44;93945.00;;;29.20
15575;BMP180;7888;46.748;8.102;2023-05-29T10:07:27;93949.00;;;29.30
15575;BMP180;7888;46.748;8.102;2023-05-29T10:10:07;93958.00;;;29.50
15575;BMP180;7888;46.748;8.102;2023-05-29T10:12:41;93947.00;;;29.60
15575;BMP180;7888;46.748;8.102;2023-05-29T10:15:17;93947.00;;;29.70
15575;BMP180;7888;46.748;8.102;2023-05-29T10:17:59;93956.00;;;29.70
15575;BMP180;7888;46.748;8.102;2023-05-29T10:20:28;93941.00;;;29.70
15575;BMP180;7888;46.748;8.102;2023-05-29T10:22:56;93944.00;;;29.60
15575;BMP180;7888;46.748;8.102;2023-05-29T10:25:29;93946.00;;;29.60
15575;BMP180;7888;46.748;8.102;2023-05-29T10:27:58;93946.00;;;29.70
15575;BMP180;7888;46.748;8.102;2023-05-29T10:30:38;93942.00;;;29.80
15575;BMP180;7888;46.748;8.102;2023-05-29T10:36:04;93928.00;;;29.90
15575;BMP180;7888;46.748;8.102;2023-05-29T10:38:32;93936.00;;;30.10
15575;BMP180;7888;46.748;8.102;2023-05-29T10:44:00;93950.00;;;30.00
15575;BMP180;7888;46.748;8.102;2023-05-29T10:49:21;93952.00;;;30.00
15575;BMP180;7888;46.748;8.102;2023-05-29T10:51:51;93962.00;;;30.00
15575;BMP180;7888;46.748;8.102;2023-05-29T10:54:25;93932.00;;;30.00
15575;BMP180;7888;46.748;8.102;2023-05-29T10:57:01;93950.00;;;30.10
15575;BMP180;7888;46.748;8.102;2023-05-29T10:59:27;93938.00;;;30.30
15575;BMP180;7888;46.748;8.102;2023-05-29T11:01:55;93951.00;;;30.20
15575;BMP180;7888;46.748;8.102;2023-05-29T11:06:52;93942.00;;;30.40
15575;BMP180;7888;46.748;8.102;2023-05-29T11:09:38;93952.00;;;30.40
15575;BMP180;7888;46.748;8.102;2023-05-29T11:12:25;93951.00;;;30.60
15575;BMP180;7888;46.748;8.102;2023-05-29T11:15:06;93933.00;;;30.70
15575;BMP180;7888;46.748;8.102;2023-05-29T11:20:08;93961.00;;;31.00
15575;BMP180;7888;46.748;8.102;2023-05-29T11:25:24;93940.00;;;31.00
15575;BMP180;7888;46.748;8.102;2023-05-29T11:27:50;93945.00;;;31.00
15575;BMP180;7888;46.748;8.102;2023-05-29T11:30:18;93932.00;;;31.00
15575;BMP180;7888;46.748;8.102;2023-05-29T11:32:46;93940.00;;;30.90
15575;BMP180;7888;46.748;8.102;2023-05-29T11:35:13;93940.00;;;31.00
15575;BMP180;7888;46.748;8.102;2023-05-29T11:37:41;93934.00;;;31.00
15575;BMP180;7888;46.748;8.102;2023-05-29T11:40:12;93940.00;;;31.00
15575;BMP180;7888;46.748;8.102;2023-05-29T11:42:46;93925.00;;;30.90
15575;BMP180;7888;46.748;8.102;2023-05-29T11:45:21;93919.00;;;31.00
15575;BMP180;7888;46.748;8.102;2023-05-29T11:50:23;93941.00;;;31.10
15575;BMP180;7888;46.748;8.102;2023-05-29T11:52:49;93943.00;;;31.20
15575;BMP180;7888;46.748;8.102;2023-05-29T11:55:18;93938.00;;;31.30
15575;BMP180;7888;46.748;8.102;2023-05-29T11:57:47;93938.00;;;31.30
15575;BMP180;7888;46.748;8.102;2023-05-29T12:00:19;93935.00;;;31.20
15575;BMP180;7888;46.748;8.102;2023-05-29T12:02:47;93943.00;;;31.20
15575;BMP180;7888;46.748;8.102;2023-05-29T12:05:15;93934.00;;;31.20
15575;BMP180;7888;46.748;8.102;2023-05-29T12:07:54;93919.00;;;31.20
15575;BMP180;7888;46.748;8.102;2023-05-29T12:10:23;93945.00;;;31.30
15575;BMP180;7888;46.748;8.102;2023-05-29T12:12:53;93939.00;;;31.30
15575;BMP180;7888;46.748;8.102;2023-05-29T12:15:19;93948.00;;;31.40
15575;BMP180;7888;46.748;8.102;2023-05-29T12:17:51;93969.00;;;31.60
15575;BMP180;7888;46.748;8.102;2023-05-29T12:20:18;93952.00;;;31.60
15575;BMP180;7888;46.748;8.102;2023-05-29T12:22:45;93965.00;;;31.70
15575;BMP180;7888;46.748;8.102;2023-05-29T12:25:17;93955.00;;;31.60
15575;BMP180;7888;46.748;8.102;2023-05-29T12:27:45;93948.00;;;31.80
15575;BMP180;7888;46.748;8.102;2023-05-29T12:32:46;93934.00;;;31.90
15575;BMP180;7888;46.748;8.102;2023-05-29T12:35:24;93955.00;;;32.00
15575;BMP180;7888;46.748;8.102;2023-05-29T12:37:56;93965.00;;;32.00
15575;BMP180;7888;46.748;8.102;2023-05-29T12:40:25;93959.00;;;31.90
15575;BMP180;7888;46.748;8.102;2023-05-29T12:42:55;93954.00;;;31.90
15575;BMP180;7888;46.748;8.102;2023-05-29T12:45:33;93941.00;;;31.80
15575;BMP180;7888;46.748;8.102;2023-05-29T12:48:07;93959.00;;;31.80
15575;BMP180;7888;46.748;8.102;2023-05-29T12:50:40;93972.00;;;31.90
15575;BMP180;7888;46.748;8.102;2023-05-29T12:53:12;93969.00;;;31.90
15575;BMP180;7888;46.748;8.102;2023-05-29T12:55:40;93946.00;;;31.90
15575;BMP180;7888;46.748;8.102;2023-05-29T12:58:09;93960.00;;;31.90
15575;BMP180;7888;46.748;8.102;2023-05-29T13:00:38;93967.00;;;31.90
15575;BMP180;7888;46.748;8.102;2023-05-29T13:03:04;93959.00;;;31.80
15575;BMP180;7888;46.748;8.102;2023-05-29T13:05:32;93951.00;;;31.70
15575;BMP180;7888;46.748;8.102;2023-05-29T13:07:58;93960.00;;;31.70
15575;BMP180;7888;46.748;8.102;2023-05-29T13:10:26;93964.00;;;31.80
15575;BMP180;7888;46.748;8.102;2023-05-29T13:12:54;93929.00;;;31.80
15575;BMP180;7888;46.748;8.102;2023-05-29T13:15:22;93945.00;;;31.70
15575;BMP180;7888;46.748;8.102;2023-05-29T13:17:49;93940.00;;;31.60
15575;BMP180;7888;46.748;8.102;2023-05-29T13:20:16;93944.00;;;31.60
15575;BMP180;7888;46.748;8.102;2023-05-29T13:22:44;93936.00;;;31.50
15575;BMP180;7888;46.748;8.102;2023-05-29T13:25:13;93946.00;;;31.50
15575;BMP180;7888;46.748;8.102;2023-05-29T13:27:46;93927.00;;;31.60
15575;BMP180;7888;46.748;8.102;2023-05-29T13:30:13;93947.00;;;31.60
15575;BMP180;7888;46.748;8.102;2023-05-29T13:32:40;93935.00;;;31.60
15575;BMP180;7888;46.748;8.102;2023-05-29T13:35:06;93945.00;;;31.70
15575;BMP180;7888;46.748;8.102;2023-05-29T13:37:32;93939.00;;;31.70
15575;BMP180;7888;46.748;8.102;2023-05-29T13:39:58;93945.00;;;31.80
15575;BMP180;7888;46.748;8.102;2023-05-29T13:42:24;93944.00;;;31.90
15575;BMP180;7888;46.748;8.102;2023-05-29T13:44:51;93960.00;;;31.90
15575;BMP180;7888;46.748;8.102;2023-05-29T13:47:17;93928.00;;;31.90
15575;BMP180;7888;46.748;8.102;2023-05-29T13:49:43;93911.00;;;31.80
15575;BMP180;7888;46.748;8.102;2023-05-29T13:52:09;93941.00;;;31.80
15575;BMP180;7888;46.748;8.102;2023-05-29T13:54:34;93942.00;;;31.90
15575;BMP180;7888;46.748;8.102;2023-05-29T13:57:04;93934.00;;;32.00
15575;BMP180;7888;46.748;8.102;2023-05-29T13:59:32;93930.00;;;31.90
15575;BMP180;7888;46.748;8.102;2023-05-29T14:01:58;93915.00;;;31.90
15575;BMP180;7888;46.748;8.102;2023-05-29T14:04:24;93932.00;;;31.90
15575;BMP180;7888;46.748;8.102;2023-05-29T14:06:51;93930.00;;;31.90
15575;BMP180;7888;46.748;8.102;2023-05-29T14:09:18;93906.00;;;31.90
15575;BMP180;7888;46.748;8.102;2023-05-29T14:11:48;93938.00;;;32.00
15575;BMP180;7888;46.748;8.102;2023-05-29T14:14:14;93919.00;;;32.10
15575;BMP180;7888;46.748;8.102;2023-05-29T14:16:41;93936.00;;;32.10
15575;BMP180;7888;46.748;8.102;2023-05-29T14:19:07;93920.00;;;32.10
15575;BMP180;7888;46.748;8.102;2023-05-29T14:21:32;93904.00;;;32.00
15575;BMP180;7888;46.748;8.102;2023-05-29T14:23:58;93913.00;;;32.00
15575;BMP180;7888;46.748;8.102;2023-05-29T14:26:24;93929.00;;;32.10
15575;BMP180;7888;46.748;8.102;2023-05-29T14:28:50;93932.00;;;32.10
15575;BMP180;7888;46.748;8.102;2023-05-29T14:31:15;93930.00;;;32.10
15575;BMP180;7888;46.748;8.102;2023-05-29T14:33:41;93928.00;;;32.10
15575;BMP180;7888;46.748;8.102;2023-05-29T14:36:07;93923.00;;;32.10
15575;BMP180;7888;46.748;8.102;2023-05-29T14:38:33;93928.00;;;32.20
15575;BMP180;7888;46.748;8.102;2023-05-29T14:40:59;93919.00;;;32.20
15575;BMP180;7888;46.748;8.102;2023-05-29T14:43:25;93947.00;;;32.20
15575;BMP180;7888;46.748;8.102;2023-05-29T14:45:51;93945.00;;;32.20
15575;BMP180;7888;46.748;8.102;2023-05-29T14:48:16;93925.00;;;32.10
15575;BMP180;7888;46.748;8.102;2023-05-29T14:50:42;93927.00;;;32.10
15575;BMP180;7888;46.748;8.102;2023-05-29T14:53:08;93929.00;;;32.10